KINS

Creech AFB Airport

Indian Springs, Nevada, USA
METAR KINS 150258Z 00000KT 10SM CLR 34/05 A2985 RMK AO2A SLP053 T03390054 53005 $
Observed Flight Rules
Aug-15 @ 02:58 UTC (37 minutes ago) Visual Flight Rules
Visibility Clouds
10 miles
  • Clear skies
Temperatures Readings
Current 34°C / 93°F
Dewpoint 5°C / 41°F
Humidity 16%
Altimeter 29.85" Hg
Pressure 1005.3 hPa
Elevation 955
METAR KINS 150258Z 00000KT 10SM CLR 34/05 A2985 RMK AO2A SLP053 T03390054 53005 $
Observed Flight Rules
Aug-15 @ 02:58 UTC
(37 minutes ago)
VFR
Clouds
  • Clear skies
Temperature Dewpoint
34°C / 93°F 5°C / 41°F
Humidity Altimeter Pressure
16% 29.85" Hg 1005.3 hPa